Afton, Wisconsin
Current Conditions -  °F | °C
As of 6:45 PM on Sunday 21 Dec 2014 (Local Time) from KJVL Reporting Station
Overcast Overcast  
Wind Chill: 27°   Ceiling: 3100
Heat Index: 37°   Visibility: 7mi
Dew Point: 30°   Wind: 18mph
Humidity: 75%   Direction: 160°SSE
Pressure: 29.99"   Gusts: 24mph
Location:  42.6°N, 89.07°W
Report Text: KJVL 220045Z 16016G21KT 7SM SCT026 OVC031 03/M01 A2999
Loading
Personal Weather Stations






























Interactive Weather Map New forecast layout! Learn more

10-Day Weather Forecast

Advertisements
Track Severe Weather on mobile